SBOSBO DEL / VIDP
Speedbird OnlineSpeedbird Online DEL / VIDP

Indira Gandhi International Airport
11:54 28°C

Location Delhi, India
Latitude: 28.5665
Longitude: 77.103104
Web Airport Website | Wikipedia
Altitude 237 Meter / 777 Feet
Distance 6,690 KM / 4,157 Miles
from London.
Time Zone UTC +5.5 hours (Asia/Calcutta)
Codes IATA: DEL
ICAO: VIDP
Currency £1 equals INR 92.44
Runways
RunwayLength (m)Surface
092813Asphalt
103810Asphalt
114430paved
272813Asphalt
283810Asphalt
294430paved
Radio
TypeDescriptionFrequency
APPDELHI APP126.35
AREA CONTROL (E)DELHI CONTROL120.9
AREA CONTROL (W)DELHI CONTROL124.55
ATISATIS126.4
CLDClearance Delivery121.95
GNDSMC121.625
GNDDELHI GND121.9
TWRDELHI TWR rwy28/10118.1
TWRDELHI TWR RWY 29/11118.25
TWRDELHI TWR Rwy 27/09118.75
Live ATC
METAR VIDP 060530Z 12009KT 4000 BR SCT035 BKN100 27/21 Q1011 NOSIG
TAF TAF VIDP 060500Z 0606/0712 11010KT 4000 HZ DZ SCT030 BKN090 TEMPO 0610/0613 FEW035CB BECMG 0616/0618 05003KT 3000 BR TEMPO 0622/0702 2000 -TSRA FEW035CB OVC090 BECMG 0704/0706 11008KT 4000 BR -RA TEMPO 0708/0712 2000 -TSRA FEW035CB OVC090
Weather As Of 06 Oct 2022 11:54
Description Haze
Wind 15 km/h from South-East (120°)
Cloud Cover 75%
Precipitation Rain: none, Snow: none
Sunrise 06:16
Sunset 18:02
Lounges Plaza Premium Lounge, Terminal 3
ITC Green Lounge (Temporarily Closed), Terminal 3
Rotations During the last 90 days there were
156 flights from LHR
157 flights to LHR


© 2017-2022 Speedbird Online